Pagrindinis puslapis
METAR-TAF:

METAR-TAF

Oro uostai :

Barter Island, Aliaska, Jungtinės Amerikos Valstijos

platuma: 70-08-02N, ilguma: 143-34-37W, Aukštis: 2 m

Dabartinis oras

Ataskaita buvo paskelbta 17 minutes, ne 10:52 UTC
Vėjas 13 kt iš Vakarų
Temperatūra -22°C
Drėgmė 84%
Slėgis 1021 hPa
Matomumas: 14.5 km
Apsiniaukę ne aukštis 6000 ft
sniegas

METAR: PABA 261052Z AUTO 27013KT 9SM -SN OVC060 M22/M24 A3016 RMK AO2 SLP221 P0000 T12171239 FZRANO TSNO

Laikas: 02:09 (11:09 UTC)


TAF: trūkstamas

Orai ataskaitas ir orų prognozės (METAR, TAF).

turimą stotys yra geltonos ir raudonos taškus žemėlapyje.

Perkelti pele per norėdami pamatyti stoties vardą.

Tada spustelėkite, norėdami matyti oro stebėjimo ir prognozės.

Norėdami pakeisti žemėlapį: spustelėkite ant žalios mygtukų su juodo kryžiaus žemyn,; žalią mygtuką su brūkšneliu, jei norite nutolinti; arba žalių rodyklių gretimoms žemėlapius.


METAR-TAF: